sensor_id;sensor_type;location;lat;lon;timestamp;P1;durP1;ratioP1;P2;durP2;ratioP2
1354;SDS011;671;48.972;9.276;2023-07-13T00:01:31;0.30;;;0.20;;
1354;SDS011;671;48.972;9.276;2023-07-13T00:03:58;0.30;;;0.20;;
1354;SDS011;671;48.972;9.276;2023-07-13T00:06:25;0.30;;;0.20;;
1354;SDS011;671;48.972;9.276;2023-07-13T00:08:59;0.30;;;0.20;;
1354;SDS011;671;48.972;9.276;2023-07-13T00:11:25;0.30;;;0.20;;
1354;SDS011;671;48.972;9.276;2023-07-13T00:13:52;0.30;;;0.20;;
1354;SDS011;671;48.972;9.276;2023-07-13T00:16:18;0.30;;;0.20;;
1354;SDS011;671;48.972;9.276;2023-07-13T00:18:45;0.30;;;0.20;;
1354;SDS011;671;48.972;9.276;2023-07-13T00:21:12;0.30;;;0.20;;
1354;SDS011;671;48.972;9.276;2023-07-13T00:23:40;0.30;;;0.20;;
1354;SDS011;671;48.972;9.276;2023-07-13T00:26:08;0.30;;;0.20;;
1354;SDS011;671;48.972;9.276;2023-07-13T00:28:37;0.30;;;0.20;;
1354;SDS011;671;48.972;9.276;2023-07-13T00:31:04;0.30;;;0.20;;
1354;SDS011;671;48.972;9.276;2023-07-13T00:33:31;0.30;;;0.20;;
1354;SDS011;671;48.972;9.276;2023-07-13T00:35:59;0.30;;;0.20;;
1354;SDS011;671;48.972;9.276;2023-07-13T00:38:25;0.30;;;0.20;;
1354;SDS011;671;48.972;9.276;2023-07-13T00:40:52;0.30;;;0.20;;
1354;SDS011;671;48.972;9.276;2023-07-13T00:43:20;0.30;;;0.20;;
1354;SDS011;671;48.972;9.276;2023-07-13T00:48:16;0.30;;;0.20;;
1354;SDS011;671;48.972;9.276;2023-07-13T00:50:47;0.30;;;0.20;;
1354;SDS011;671;48.972;9.276;2023-07-13T00:53:17;0.30;;;0.20;;
1354;SDS011;671;48.972;9.276;2023-07-13T00:55:45;0.30;;;0.20;;
1354;SDS011;671;48.972;9.276;2023-07-13T00:58:13;0.30;;;0.20;;
1354;SDS011;671;48.972;9.276;2023-07-13T01:00:39;0.30;;;0.20;;
1354;SDS011;671;48.972;9.276;2023-07-13T01:03:06;0.30;;;0.20;;
1354;SDS011;671;48.972;9.276;2023-07-13T01:05:33;0.30;;;0.20;;
1354;SDS011;671;48.972;9.276;2023-07-13T01:08:01;0.30;;;0.20;;
1354;SDS011;671;48.972;9.276;2023-07-13T01:10:29;0.30;;;0.20;;
1354;SDS011;671;48.972;9.276;2023-07-13T01:13:03;0.30;;;0.20;;
1354;SDS011;671;48.972;9.276;2023-07-13T01:15:44;0.30;;;0.20;;
1354;SDS011;671;48.972;9.276;2023-07-13T01:18:13;0.30;;;0.20;;
1354;SDS011;671;48.972;9.276;2023-07-13T01:20:58;0.30;;;0.20;;
1354;SDS011;671;48.972;9.276;2023-07-13T01:23:27;0.30;;;0.20;;
1354;SDS011;671;48.972;9.276;2023-07-13T01:25:54;0.30;;;0.20;;
1354;SDS011;671;48.972;9.276;2023-07-13T01:28:22;0.30;;;0.20;;
1354;SDS011;671;48.972;9.276;2023-07-13T01:30:53;0.30;;;0.20;;
1354;SDS011;671;48.972;9.276;2023-07-13T01:33:21;0.30;;;0.30;;
1354;SDS011;671;48.972;9.276;2023-07-13T01:35:48;0.30;;;0.20;;
1354;SDS011;671;48.972;9.276;2023-07-13T01:38:15;0.30;;;0.20;;
1354;SDS011;671;48.972;9.276;2023-07-13T01:40:46;0.30;;;0.20;;
1354;SDS011;671;48.972;9.276;2023-07-13T01:43:13;0.30;;;0.30;;
1354;SDS011;671;48.972;9.276;2023-07-13T01:45:40;0.30;;;0.20;;
1354;SDS011;671;48.972;9.276;2023-07-13T01:48:06;0.30;;;0.20;;
1354;SDS011;671;48.972;9.276;2023-07-13T01:50:33;0.30;;;0.20;;
1354;SDS011;671;48.972;9.276;2023-07-13T01:53:00;0.30;;;0.30;;
1354;SDS011;671;48.972;9.276;2023-07-13T01:55:27;0.30;;;0.30;;
1354;SDS011;671;48.972;9.276;2023-07-13T01:57:55;0.30;;;0.20;;
1354;SDS011;671;48.972;9.276;2023-07-13T02:00:22;0.30;;;0.30;;
1354;SDS011;671;48.972;9.276;2023-07-13T02:02:48;0.30;;;0.20;;
1354;SDS011;671;48.972;9.276;2023-07-13T02:05:15;0.30;;;0.30;;
1354;SDS011;671;48.972;9.276;2023-07-13T02:07:42;0.30;;;0.20;;
1354;SDS011;671;48.972;9.276;2023-07-13T02:10:09;0.30;;;0.20;;
1354;SDS011;671;48.972;9.276;2023-07-13T02:12:36;0.30;;;0.30;;
1354;SDS011;671;48.972;9.276;2023-07-13T02:15:04;0.30;;;0.20;;
1354;SDS011;671;48.972;9.276;2023-07-13T02:17:31;0.30;;;0.30;;
1354;SDS011;671;48.972;9.276;2023-07-13T02:19:58;0.30;;;0.20;;
1354;SDS011;671;48.972;9.276;2023-07-13T02:22:24;0.30;;;0.30;;
1354;SDS011;671;48.972;9.276;2023-07-13T02:24:51;0.30;;;0.20;;
1354;SDS011;671;48.972;9.276;2023-07-13T02:27:18;0.30;;;0.30;;
1354;SDS011;671;48.972;9.276;2023-07-13T02:29:44;0.30;;;0.20;;
1354;SDS011;671;48.972;9.276;2023-07-13T02:32:11;0.30;;;0.27;;
1354;SDS011;671;48.972;9.276;2023-07-13T02:34:38;0.30;;;0.30;;
1354;SDS011;671;48.972;9.276;2023-07-13T02:37:04;0.30;;;0.20;;
1354;SDS011;671;48.972;9.276;2023-07-13T02:39:31;0.30;;;0.20;;
1354;SDS011;671;48.972;9.276;2023-07-13T02:41:59;0.30;;;0.20;;
1354;SDS011;671;48.972;9.276;2023-07-13T02:44:26;0.30;;;0.30;;
1354;SDS011;671;48.972;9.276;2023-07-13T02:46:53;0.30;;;0.23;;
1354;SDS011;671;48.972;9.276;2023-07-13T02:49:20;0.30;;;0.30;;
1354;SDS011;671;48.972;9.276;2023-07-13T02:51:46;0.30;;;0.20;;
1354;SDS011;671;48.972;9.276;2023-07-13T02:54:13;0.30;;;0.30;;
1354;SDS011;671;48.972;9.276;2023-07-13T02:56:40;0.30;;;0.30;;
1354;SDS011;671;48.972;9.276;2023-07-13T02:59:06;0.30;;;0.20;;
1354;SDS011;671;48.972;9.276;2023-07-13T03:01:33;0.40;;;0.30;;
1354;SDS011;671;48.972;9.276;2023-07-13T03:04:01;0.40;;;0.30;;
1354;SDS011;671;48.972;9.276;2023-07-13T03:06:28;0.30;;;0.30;;
1354;SDS011;671;48.972;9.276;2023-07-13T03:08:57;0.40;;;0.40;;
1354;SDS011;671;48.972;9.276;2023-07-13T03:11:24;0.30;;;0.30;;
1354;SDS011;671;48.972;9.276;2023-07-13T03:13:50;0.30;;;0.30;;
1354;SDS011;671;48.972;9.276;2023-07-13T03:16:17;0.30;;;0.30;;
1354;SDS011;671;48.972;9.276;2023-07-13T03:18:45;0.30;;;0.30;;
1354;SDS011;671;48.972;9.276;2023-07-13T03:21:12;0.30;;;0.30;;
1354;SDS011;671;48.972;9.276;2023-07-13T03:23:39;0.40;;;0.30;;
1354;SDS011;671;48.972;9.276;2023-07-13T03:26:10;0.40;;;0.30;;
1354;SDS011;671;48.972;9.276;2023-07-13T03:28:41;0.40;;;0.30;;
1354;SDS011;671;48.972;9.276;2023-07-13T03:31:10;0.40;;;0.30;;
1354;SDS011;671;48.972;9.276;2023-07-13T03:33:39;0.40;;;0.30;;
1354;SDS011;671;48.972;9.276;2023-07-13T03:36:06;0.30;;;0.30;;
1354;SDS011;671;48.972;9.276;2023-07-13T03:38:34;0.40;;;0.30;;
1354;SDS011;671;48.972;9.276;2023-07-13T03:41:00;0.30;;;0.20;;
1354;SDS011;671;48.972;9.276;2023-07-13T03:43:27;0.30;;;0.30;;
1354;SDS011;671;48.972;9.276;2023-07-13T03:45:53;0.40;;;0.30;;
1354;SDS011;671;48.972;9.276;2023-07-13T03:48:21;0.30;;;0.30;;
1354;SDS011;671;48.972;9.276;2023-07-13T03:50:48;0.30;;;0.30;;
1354;SDS011;671;48.972;9.276;2023-07-13T03:53:15;0.30;;;0.30;;
1354;SDS011;671;48.972;9.276;2023-07-13T03:55:42;0.30;;;0.30;;
1354;SDS011;671;48.972;9.276;2023-07-13T04:01:00;0.30;;;0.30;;
1354;SDS011;671;48.972;9.276;2023-07-13T04:03:28;0.30;;;0.30;;
1354;SDS011;671;48.972;9.276;2023-07-13T04:05:55;0.40;;;0.40;;
1354;SDS011;671;48.972;9.276;2023-07-13T04:08:30;0.40;;;0.30;;
1354;SDS011;671;48.972;9.276;2023-07-13T04:11:00;0.40;;;0.30;;
1354;SDS011;671;48.972;9.276;2023-07-13T04:13:28;0.30;;;0.30;;
1354;SDS011;671;48.972;9.276;2023-07-13T04:15:54;0.30;;;0.30;;
1354;SDS011;671;48.972;9.276;2023-07-13T04:18:21;0.40;;;0.30;;
1354;SDS011;671;48.972;9.276;2023-07-13T04:20:48;0.30;;;0.30;;
1354;SDS011;671;48.972;9.276;2023-07-13T04:23:16;0.30;;;0.20;;
1354;SDS011;671;48.972;9.276;2023-07-13T04:25:46;0.40;;;0.33;;
1354;SDS011;671;48.972;9.276;2023-07-13T04:28:15;0.30;;;0.20;;
1354;SDS011;671;48.972;9.276;2023-07-13T04:30:43;0.30;;;0.30;;
1354;SDS011;671;48.972;9.276;2023-07-13T04:33:10;0.30;;;0.30;;
1354;SDS011;671;48.972;9.276;2023-07-13T04:35:38;0.30;;;0.20;;
1354;SDS011;671;48.972;9.276;2023-07-13T04:38:04;0.30;;;0.30;;
1354;SDS011;671;48.972;9.276;2023-07-13T04:40:31;0.30;;;0.30;;
1354;SDS011;671;48.972;9.276;2023-07-13T04:42:58;0.30;;;0.30;;
1354;SDS011;671;48.972;9.276;2023-07-13T04:45:24;0.30;;;0.30;;
1354;SDS011;671;48.972;9.276;2023-07-13T04:47:51;0.30;;;0.30;;
1354;SDS011;671;48.972;9.276;2023-07-13T04:50:18;0.30;;;0.30;;
1354;SDS011;671;48.972;9.276;2023-07-13T04:52:49;0.30;;;0.30;;
1354;SDS011;671;48.972;9.276;2023-07-13T04:55:17;0.30;;;0.30;;
1354;SDS011;671;48.972;9.276;2023-07-13T04:57:45;0.30;;;0.30;;
1354;SDS011;671;48.972;9.276;2023-07-13T05:00:12;0.30;;;0.20;;
1354;SDS011;671;48.972;9.276;2023-07-13T05:02:43;0.30;;;0.30;;
1354;SDS011;671;48.972;9.276;2023-07-13T05:05:10;0.30;;;0.30;;
1354;SDS011;671;48.972;9.276;2023-07-13T05:07:36;0.30;;;0.30;;
1354;SDS011;671;48.972;9.276;2023-07-13T05:10:03;0.30;;;0.30;;
1354;SDS011;671;48.972;9.276;2023-07-13T05:12:30;0.30;;;0.30;;
1354;SDS011;671;48.972;9.276;2023-07-13T05:14:56;0.30;;;0.30;;
1354;SDS011;671;48.972;9.276;2023-07-13T05:17:23;0.30;;;0.30;;
1354;SDS011;671;48.972;9.276;2023-07-13T05:19:49;0.30;;;0.20;;
1354;SDS011;671;48.972;9.276;2023-07-13T05:22:16;0.30;;;0.30;;
1354;SDS011;671;48.972;9.276;2023-07-13T05:24:42;0.30;;;0.30;;
1354;SDS011;671;48.972;9.276;2023-07-13T05:27:09;0.30;;;0.30;;
1354;SDS011;671;48.972;9.276;2023-07-13T05:29:35;0.30;;;0.30;;
1354;SDS011;671;48.972;9.276;2023-07-13T05:32:02;0.30;;;0.30;;
1354;SDS011;671;48.972;9.276;2023-07-13T05:34:29;0.30;;;0.27;;
1354;SDS011;671;48.972;9.276;2023-07-13T05:36:55;0.30;;;0.20;;
1354;SDS011;671;48.972;9.276;2023-07-13T05:39:22;0.30;;;0.20;;
1354;SDS011;671;48.972;9.276;2023-07-13T05:41:48;0.30;;;0.27;;
1354;SDS011;671;48.972;9.276;2023-07-13T05:44:15;0.30;;;0.20;;
1354;SDS011;671;48.972;9.276;2023-07-13T05:46:41;0.30;;;0.20;;
1354;SDS011;671;48.972;9.276;2023-07-13T05:49:08;0.30;;;0.20;;
1354;SDS011;671;48.972;9.276;2023-07-13T05:51:34;0.30;;;0.30;;
1354;SDS011;671;48.972;9.276;2023-07-13T05:54:01;0.30;;;0.30;;
1354;SDS011;671;48.972;9.276;2023-07-13T05:56:27;0.30;;;0.20;;
1354;SDS011;671;48.972;9.276;2023-07-13T05:58:54;0.30;;;0.30;;
1354;SDS011;671;48.972;9.276;2023-07-13T06:01:20;0.30;;;0.20;;
1354;SDS011;671;48.972;9.276;2023-07-13T06:03:48;0.30;;;0.30;;
1354;SDS011;671;48.972;9.276;2023-07-13T06:06:15;0.30;;;0.20;;
1354;SDS011;671;48.972;9.276;2023-07-13T06:08:42;0.30;;;0.30;;
1354;SDS011;671;48.972;9.276;2023-07-13T06:13:41;0.30;;;0.20;;
1354;SDS011;671;48.972;9.276;2023-07-13T06:16:07;0.30;;;0.20;;
1354;SDS011;671;48.972;9.276;2023-07-13T06:18:35;0.30;;;0.30;;
1354;SDS011;671;48.972;9.276;2023-07-13T06:21:09;0.30;;;0.20;;
1354;SDS011;671;48.972;9.276;2023-07-13T06:23:38;0.30;;;0.20;;
1354;SDS011;671;48.972;9.276;2023-07-13T06:26:04;0.30;;;0.20;;
1354;SDS011;671;48.972;9.276;2023-07-13T06:28:32;0.30;;;0.20;;
1354;SDS011;671;48.972;9.276;2023-07-13T06:30:59;0.30;;;0.20;;
1354;SDS011;671;48.972;9.276;2023-07-13T06:33:27;0.30;;;0.20;;
1354;SDS011;671;48.972;9.276;2023-07-13T06:35:53;0.30;;;0.20;;
1354;SDS011;671;48.972;9.276;2023-07-13T06:38:21;0.30;;;0.20;;
1354;SDS011;671;48.972;9.276;2023-07-13T06:40:47;0.30;;;0.20;;
1354;SDS011;671;48.972;9.276;2023-07-13T06:43:14;0.30;;;0.20;;
1354;SDS011;671;48.972;9.276;2023-07-13T06:45:42;0.30;;;0.20;;
1354;SDS011;671;48.972;9.276;2023-07-13T06:48:11;0.30;;;0.20;;
1354;SDS011;671;48.972;9.276;2023-07-13T06:50:38;0.30;;;0.20;;
1354;SDS011;671;48.972;9.276;2023-07-13T06:53:04;0.30;;;0.20;;
1354;SDS011;671;48.972;9.276;2023-07-13T06:55:31;0.30;;;0.20;;
1354;SDS011;671;48.972;9.276;2023-07-13T06:57:57;0.30;;;0.20;;
1354;SDS011;671;48.972;9.276;2023-07-13T07:00:24;0.30;;;0.20;;
1354;SDS011;671;48.972;9.276;2023-07-13T07:02:50;0.30;;;0.20;;
1354;SDS011;671;48.972;9.276;2023-07-13T07:05:17;0.30;;;0.20;;
1354;SDS011;671;48.972;9.276;2023-07-13T07:07:43;0.30;;;0.20;;
1354;SDS011;671;48.972;9.276;2023-07-13T07:10:10;0.30;;;0.20;;
1354;SDS011;671;48.972;9.276;2023-07-13T07:12:36;0.30;;;0.20;;
1354;SDS011;671;48.972;9.276;2023-07-13T07:15:03;0.30;;;0.20;;
1354;SDS011;671;48.972;9.276;2023-07-13T07:17:30;0.30;;;0.20;;
1354;SDS011;671;48.972;9.276;2023-07-13T07:19:56;0.30;;;0.20;;
1354;SDS011;671;48.972;9.276;2023-07-13T07:22:23;0.30;;;0.17;;
1354;SDS011;671;48.972;9.276;2023-07-13T07:24:53;0.30;;;0.20;;
1354;SDS011;671;48.972;9.276;2023-07-13T07:27:20;0.30;;;0.20;;
1354;SDS011;671;48.972;9.276;2023-07-13T07:29:46;0.30;;;0.20;;
1354;SDS011;671;48.972;9.276;2023-07-13T07:32:13;0.30;;;0.20;;
1354;SDS011;671;48.972;9.276;2023-07-13T07:34:39;0.30;;;0.20;;
1354;SDS011;671;48.972;9.276;2023-07-13T07:37:06;0.30;;;0.20;;
1354;SDS011;671;48.972;9.276;2023-07-13T07:39:32;0.30;;;0.20;;
1354;SDS011;671;48.972;9.276;2023-07-13T07:41:59;0.30;;;0.20;;
1354;SDS011;671;48.972;9.276;2023-07-13T07:44:25;0.30;;;0.20;;
1354;SDS011;671;48.972;9.276;2023-07-13T07:46:54;0.30;;;0.20;;
1354;SDS011;671;48.972;9.276;2023-07-13T07:49:20;0.30;;;0.20;;
1354;SDS011;671;48.972;9.276;2023-07-13T07:51:47;0.30;;;0.20;;
1354;SDS011;671;48.972;9.276;2023-07-13T07:54:13;0.30;;;0.20;;
1354;SDS011;671;48.972;9.276;2023-07-13T07:56:40;0.30;;;0.20;;
1354;SDS011;671;48.972;9.276;2023-07-13T07:59:07;0.30;;;0.20;;
1354;SDS011;671;48.972;9.276;2023-07-13T08:01:33;0.30;;;0.20;;
1354;SDS011;671;48.972;9.276;2023-07-13T08:04:00;0.30;;;0.20;;
1354;SDS011;671;48.972;9.276;2023-07-13T08:06:26;0.30;;;0.20;;
1354;SDS011;671;48.972;9.276;2023-07-13T08:08:53;0.30;;;0.20;;
1354;SDS011;671;48.972;9.276;2023-07-13T08:11:20;0.30;;;0.20;;
1354;SDS011;671;48.972;9.276;2023-07-13T08:13:49;0.30;;;0.20;;
1354;SDS011;671;48.972;9.276;2023-07-13T08:16:16;0.30;;;0.20;;
1354;SDS011;671;48.972;9.276;2023-07-13T08:18:42;0.30;;;0.10;;
1354;SDS011;671;48.972;9.276;2023-07-13T08:21:09;0.30;;;0.20;;
1354;SDS011;671;48.972;9.276;2023-07-13T08:23:35;0.30;;;0.20;;
1354;SDS011;671;48.972;9.276;2023-07-13T08:26:02;0.30;;;0.20;;
1354;SDS011;671;48.972;9.276;2023-07-13T08:28:30;0.30;;;0.20;;
1354;SDS011;671;48.972;9.276;2023-07-13T08:31:02;0.30;;;0.20;;
1354;SDS011;671;48.972;9.276;2023-07-13T08:33:30;0.30;;;0.10;;
1354;SDS011;671;48.972;9.276;2023-07-13T08:35:57;0.30;;;0.10;;
1354;SDS011;671;48.972;9.276;2023-07-13T08:38:23;0.30;;;0.20;;
1354;SDS011;671;48.972;9.276;2023-07-13T08:40:51;0.30;;;0.20;;
1354;SDS011;671;48.972;9.276;2023-07-13T08:43:23;0.30;;;0.17;;
1354;SDS011;671;48.972;9.276;2023-07-13T08:46:01;0.30;;;0.20;;
1354;SDS011;671;48.972;9.276;2023-07-13T08:48:41;0.30;;;0.10;;
1354;SDS011;671;48.972;9.276;2023-07-13T08:54:09;0.30;;;0.20;;
1354;SDS011;671;48.972;9.276;2023-07-13T08:56:43;0.30;;;0.20;;
1354;SDS011;671;48.972;9.276;2023-07-13T08:59:14;0.30;;;0.10;;
1354;SDS011;671;48.972;9.276;2023-07-13T09:04:45;0.30;;;0.10;;
1354;SDS011;671;48.972;9.276;2023-07-13T09:13:47;0.30;;;0.20;;
1354;SDS011;671;48.972;9.276;2023-07-13T09:16:18;0.30;;;0.10;;
1354;SDS011;671;48.972;9.276;2023-07-13T09:18:47;0.30;;;0.10;;
1354;SDS011;671;48.972;9.276;2023-07-13T09:21:32;0.30;;;0.10;;
1354;SDS011;671;48.972;9.276;2023-07-13T09:27:02;0.30;;;0.10;;
1354;SDS011;671;48.972;9.276;2023-07-13T09:29:54;0.30;;;0.10;;
1354;SDS011;671;48.972;9.276;2023-07-13T09:32:27;0.30;;;0.20;;
1354;SDS011;671;48.972;9.276;2023-07-13T09:34:55;0.30;;;0.10;;
1354;SDS011;671;48.972;9.276;2023-07-13T09:37:22;0.30;;;0.20;;
1354;SDS011;671;48.972;9.276;2023-07-13T09:39:54;0.30;;;0.20;;
1354;SDS011;671;48.972;9.276;2023-07-13T09:42:23;0.30;;;0.10;;
1354;SDS011;671;48.972;9.276;2023-07-13T09:44:53;0.30;;;0.10;;
1354;SDS011;671;48.972;9.276;2023-07-13T09:47:21;0.30;;;0.10;;
1354;SDS011;671;48.972;9.276;2023-07-13T09:49:57;0.30;;;0.10;;
1354;SDS011;671;48.972;9.276;2023-07-13T09:52:25;0.30;;;0.10;;
1354;SDS011;671;48.972;9.276;2023-07-13T09:54:55;0.30;;;0.10;;
1354;SDS011;671;48.972;9.276;2023-07-13T09:57:25;0.30;;;0.10;;
1354;SDS011;671;48.972;9.276;2023-07-13T09:59:54;0.30;;;0.10;;
1354;SDS011;671;48.972;9.276;2023-07-13T10:05:04;0.30;;;0.10;;
1354;SDS011;671;48.972;9.276;2023-07-13T10:07:38;0.30;;;0.10;;
1354;SDS011;671;48.972;9.276;2023-07-13T10:10:16;0.30;;;0.10;;
1354;SDS011;671;48.972;9.276;2023-07-13T10:12:46;0.30;;;0.10;;
1354;SDS011;671;48.972;9.276;2023-07-13T10:15:18;0.30;;;0.10;;
1354;SDS011;671;48.972;9.276;2023-07-13T10:17:51;0.30;;;0.10;;
1354;SDS011;671;48.972;9.276;2023-07-13T10:20:20;0.30;;;0.10;;
1354;SDS011;671;48.972;9.276;2023-07-13T10:25:24;0.30;;;0.10;;
1354;SDS011;671;48.972;9.276;2023-07-13T10:27:53;0.30;;;0.10;;
1354;SDS011;671;48.972;9.276;2023-07-13T10:30:25;0.30;;;0.10;;
1354;SDS011;671;48.972;9.276;2023-07-13T10:33:00;0.30;;;0.10;;
1354;SDS011;671;48.972;9.276;2023-07-13T10:35:29;0.30;;;0.10;;
1354;SDS011;671;48.972;9.276;2023-07-13T10:37:59;0.30;;;0.10;;
1354;SDS011;671;48.972;9.276;2023-07-13T10:40:34;0.30;;;0.10;;
1354;SDS011;671;48.972;9.276;2023-07-13T10:43:05;0.30;;;0.10;;
1354;SDS011;671;48.972;9.276;2023-07-13T10:45:42;0.30;;;0.10;;
1354;SDS011;671;48.972;9.276;2023-07-13T10:48:14;0.30;;;0.10;;
1354;SDS011;671;48.972;9.276;2023-07-13T10:50:43;0.40;;;0.30;;
1354;SDS011;671;48.972;9.276;2023-07-13T10:58:15;0.30;;;0.10;;
1354;SDS011;671;48.972;9.276;2023-07-13T11:00:51;0.30;;;0.10;;
1354;SDS011;671;48.972;9.276;2023-07-13T11:03:25;0.30;;;0.10;;
1354;SDS011;671;48.972;9.276;2023-07-13T11:06:04;0.30;;;0.10;;
1354;SDS011;671;48.972;9.276;2023-07-13T11:11:35;0.30;;;0.10;;
1354;SDS011;671;48.972;9.276;2023-07-13T11:14:03;0.30;;;0.10;;
1354;SDS011;671;48.972;9.276;2023-07-13T11:16:49;0.30;;;0.10;;
1354;SDS011;671;48.972;9.276;2023-07-13T11:32:40;0.30;;;0.10;;
1354;SDS011;671;48.972;9.276;2023-07-13T11:35:12;0.30;;;0.10;;
1354;SDS011;671;48.972;9.276;2023-07-13T11:37:44;0.30;;;0.10;;
1354;SDS011;671;48.972;9.276;2023-07-13T11:40:13;0.30;;;0.10;;
1354;SDS011;671;48.972;9.276;2023-07-13T11:42:40;0.30;;;0.10;;
1354;SDS011;671;48.972;9.276;2023-07-13T11:45:28;0.30;;;0.10;;
1354;SDS011;671;48.972;9.276;2023-07-13T11:47:54;0.30;;;0.10;;
1354;SDS011;671;48.972;9.276;2023-07-13T11:50:26;0.30;;;0.10;;
1354;SDS011;671;48.972;9.276;2023-07-13T11:52:53;0.30;;;0.10;;
1354;SDS011;671;48.972;9.276;2023-07-13T11:55:22;0.30;;;0.10;;
1354;SDS011;671;48.972;9.276;2023-07-13T11:57:51;0.30;;;0.10;;
1354;SDS011;671;48.972;9.276;2023-07-13T12:00:26;0.30;;;0.10;;
1354;SDS011;671;48.972;9.276;2023-07-13T12:02:57;0.30;;;0.10;;
1354;SDS011;671;48.972;9.276;2023-07-13T12:05:26;0.30;;;0.10;;
1354;SDS011;671;48.972;9.276;2023-07-13T12:07:53;0.30;;;0.10;;
1354;SDS011;671;48.972;9.276;2023-07-13T12:10:22;0.30;;;0.10;;
1354;SDS011;671;48.972;9.276;2023-07-13T12:13:24;0.30;;;0.10;;
1354;SDS011;671;48.972;9.276;2023-07-13T12:15:44;0.30;;;0.10;;
1354;SDS011;671;48.972;9.276;2023-07-13T12:18:22;0.30;;;0.10;;
1354;SDS011;671;48.972;9.276;2023-07-13T12:20:55;0.30;;;0.10;;
1354;SDS011;671;48.972;9.276;2023-07-13T12:25:56;0.30;;;0.10;;
1354;SDS011;671;48.972;9.276;2023-07-13T12:28:31;0.30;;;0.20;;
1354;SDS011;671;48.972;9.276;2023-07-13T12:30:59;0.30;;;0.10;;
1354;SDS011;671;48.972;9.276;2023-07-13T12:33:28;0.30;;;0.10;;
1354;SDS011;671;48.972;9.276;2023-07-13T12:35:55;0.30;;;0.10;;
1354;SDS011;671;48.972;9.276;2023-07-13T12:38:24;0.30;;;0.10;;
1354;SDS011;671;48.972;9.276;2023-07-13T12:40:51;0.30;;;0.10;;
1354;SDS011;671;48.972;9.276;2023-07-13T12:43:22;0.30;;;0.10;;
1354;SDS011;671;48.972;9.276;2023-07-13T12:46:00;0.30;;;0.10;;
1354;SDS011;671;48.972;9.276;2023-07-13T12:48:29;0.30;;;0.10;;
1354;SDS011;671;48.972;9.276;2023-07-13T12:51:04;0.30;;;0.10;;
1354;SDS011;671;48.972;9.276;2023-07-13T12:53:35;0.30;;;0.10;;
1354;SDS011;671;48.972;9.276;2023-07-13T12:56:08;0.30;;;0.10;;
1354;SDS011;671;48.972;9.276;2023-07-13T12:59:01;0.30;;;0.10;;
1354;SDS011;671;48.972;9.276;2023-07-13T13:01:31;0.30;;;0.10;;
1354;SDS011;671;48.972;9.276;2023-07-13T13:04:03;0.30;;;0.10;;
1354;SDS011;671;48.972;9.276;2023-07-13T13:06:34;0.30;;;0.10;;
1354;SDS011;671;48.972;9.276;2023-07-13T13:09:03;0.30;;;0.10;;
1354;SDS011;671;48.972;9.276;2023-07-13T13:11:35;0.30;;;0.10;;
1354;SDS011;671;48.972;9.276;2023-07-13T13:14:01;0.30;;;0.10;;
1354;SDS011;671;48.972;9.276;2023-07-13T13:19:24;0.30;;;0.10;;
1354;SDS011;671;48.972;9.276;2023-07-13T13:21:53;0.30;;;0.10;;
1354;SDS011;671;48.972;9.276;2023-07-13T13:24:23;0.30;;;0.10;;
1354;SDS011;671;48.972;9.276;2023-07-13T13:26:51;0.30;;;0.10;;
1354;SDS011;671;48.972;9.276;2023-07-13T13:29:23;0.30;;;0.20;;
1354;SDS011;671;48.972;9.276;2023-07-13T13:31:51;0.30;;;0.10;;
1354;SDS011;671;48.972;9.276;2023-07-13T13:34:19;0.30;;;0.10;;
1354;SDS011;671;48.972;9.276;2023-07-13T13:36:46;0.30;;;0.10;;
1354;SDS011;671;48.972;9.276;2023-07-13T13:39:18;0.30;;;0.10;;
1354;SDS011;671;48.972;9.276;2023-07-13T13:42:02;0.30;;;0.10;;
1354;SDS011;671;48.972;9.276;2023-07-13T13:44:29;0.30;;;0.10;;
1354;SDS011;671;48.972;9.276;2023-07-13T13:46:55;0.30;;;0.10;;
1354;SDS011;671;48.972;9.276;2023-07-13T13:49:24;0.30;;;0.10;;
1354;SDS011;671;48.972;9.276;2023-07-13T13:51:52;0.30;;;0.10;;
1354;SDS011;671;48.972;9.276;2023-07-13T13:54:20;0.30;;;0.10;;
1354;SDS011;671;48.972;9.276;2023-07-13T13:56:49;0.30;;;0.10;;
1354;SDS011;671;48.972;9.276;2023-07-13T13:59:16;0.30;;;0.10;;
1354;SDS011;671;48.972;9.276;2023-07-13T14:01:44;0.30;;;0.10;;
1354;SDS011;671;48.972;9.276;2023-07-13T14:04:15;0.30;;;0.20;;
1354;SDS011;671;48.972;9.276;2023-07-13T14:06:44;0.30;;;0.10;;
1354;SDS011;671;48.972;9.276;2023-07-13T14:09:11;0.30;;;0.10;;
1354;SDS011;671;48.972;9.276;2023-07-13T14:11:39;0.30;;;0.10;;
1354;SDS011;671;48.972;9.276;2023-07-13T14:14:09;0.30;;;0.10;;
1354;SDS011;671;48.972;9.276;2023-07-13T14:16:44;0.30;;;0.10;;
1354;SDS011;671;48.972;9.276;2023-07-13T14:19:12;0.30;;;0.10;;
1354;SDS011;671;48.972;9.276;2023-07-13T14:21:40;0.30;;;0.10;;
1354;SDS011;671;48.972;9.276;2023-07-13T14:24:07;0.30;;;0.10;;
1354;SDS011;671;48.972;9.276;2023-07-13T14:26:36;0.30;;;0.10;;
1354;SDS011;671;48.972;9.276;2023-07-13T14:29:05;0.30;;;0.10;;
1354;SDS011;671;48.972;9.276;2023-07-13T14:31:38;0.30;;;0.10;;
1354;SDS011;671;48.972;9.276;2023-07-13T14:34:04;0.30;;;0.10;;
1354;SDS011;671;48.972;9.276;2023-07-13T14:36:36;0.30;;;0.10;;
1354;SDS011;671;48.972;9.276;2023-07-13T14:39:11;0.30;;;0.10;;
1354;SDS011;671;48.972;9.276;2023-07-13T14:41:43;0.30;;;0.10;;
1354;SDS011;671;48.972;9.276;2023-07-13T14:44:14;0.30;;;0.10;;
1354;SDS011;671;48.972;9.276;2023-07-13T14:46:42;0.30;;;0.10;;
1354;SDS011;671;48.972;9.276;2023-07-13T14:51:40;0.30;;;0.10;;
1354;SDS011;671;48.972;9.276;2023-07-13T14:54:08;0.30;;;0.10;;
1354;SDS011;671;48.972;9.276;2023-07-13T14:56:35;0.30;;;0.10;;
1354;SDS011;671;48.972;9.276;2023-07-13T14:59:01;0.30;;;0.10;;
1354;SDS011;671;48.972;9.276;2023-07-13T15:01:28;0.30;;;0.10;;
1354;SDS011;671;48.972;9.276;2023-07-13T15:03:56;0.30;;;0.10;;
1354;SDS011;671;48.972;9.276;2023-07-13T15:06:24;0.30;;;0.10;;
1354;SDS011;671;48.972;9.276;2023-07-13T15:08:50;0.30;;;0.10;;
1354;SDS011;671;48.972;9.276;2023-07-13T15:11:17;0.30;;;0.10;;
1354;SDS011;671;48.972;9.276;2023-07-13T15:13:44;0.30;;;0.10;;
1354;SDS011;671;48.972;9.276;2023-07-13T15:16:13;0.30;;;0.10;;
1354;SDS011;671;48.972;9.276;2023-07-13T15:18:46;0.30;;;0.10;;
1354;SDS011;671;48.972;9.276;2023-07-13T15:21:20;0.30;;;0.10;;
1354;SDS011;671;48.972;9.276;2023-07-13T15:23:49;0.30;;;0.10;;
1354;SDS011;671;48.972;9.276;2023-07-13T15:26:17;0.30;;;0.10;;
1354;SDS011;671;48.972;9.276;2023-07-13T15:28:45;0.30;;;0.10;;
1354;SDS011;671;48.972;9.276;2023-07-13T15:31:17;0.30;;;0.10;;
1354;SDS011;671;48.972;9.276;2023-07-13T15:33:46;0.30;;;0.10;;
1354;SDS011;671;48.972;9.276;2023-07-13T15:36:18;0.30;;;0.20;;
1354;SDS011;671;48.972;9.276;2023-07-13T15:38:46;0.30;;;0.10;;
1354;SDS011;671;48.972;9.276;2023-07-13T15:41:24;0.30;;;0.10;;
1354;SDS011;671;48.972;9.276;2023-07-13T15:43:53;0.30;;;0.10;;
1354;SDS011;671;48.972;9.276;2023-07-13T15:46:25;0.30;;;0.10;;
1354;SDS011;671;48.972;9.276;2023-07-13T15:48:53;0.30;;;0.10;;
1354;SDS011;671;48.972;9.276;2023-07-13T15:51:24;0.30;;;0.10;;
1354;SDS011;671;48.972;9.276;2023-07-13T15:53:58;0.30;;;0.10;;
1354;SDS011;671;48.972;9.276;2023-07-13T15:56:29;0.30;;;0.10;;
1354;SDS011;671;48.972;9.276;2023-07-13T15:59:00;0.30;;;0.10;;
1354;SDS011;671;48.972;9.276;2023-07-13T16:01:28;0.30;;;0.10;;
1354;SDS011;671;48.972;9.276;2023-07-13T16:03:57;0.30;;;0.10;;
1354;SDS011;671;48.972;9.276;2023-07-13T16:06:25;0.30;;;0.10;;
1354;SDS011;671;48.972;9.276;2023-07-13T16:08:55;0.30;;;0.10;;
1354;SDS011;671;48.972;9.276;2023-07-13T16:11:23;0.30;;;0.10;;
1354;SDS011;671;48.972;9.276;2023-07-13T16:13:53;0.30;;;0.10;;
1354;SDS011;671;48.972;9.276;2023-07-13T16:16:22;0.30;;;0.10;;
1354;SDS011;671;48.972;9.276;2023-07-13T16:18:52;0.30;;;0.10;;
1354;SDS011;671;48.972;9.276;2023-07-13T16:21:23;0.30;;;0.10;;
1354;SDS011;671;48.972;9.276;2023-07-13T16:23:52;0.30;;;0.10;;
1354;SDS011;671;48.972;9.276;2023-07-13T16:26:25;0.30;;;0.20;;
1354;SDS011;671;48.972;9.276;2023-07-13T16:29:10;0.30;;;0.10;;
1354;SDS011;671;48.972;9.276;2023-07-13T16:31:38;0.30;;;0.10;;
1354;SDS011;671;48.972;9.276;2023-07-13T16:34:05;0.30;;;0.10;;
1354;SDS011;671;48.972;9.276;2023-07-13T16:36:34;0.30;;;0.10;;
1354;SDS011;671;48.972;9.276;2023-07-13T16:39:04;0.30;;;0.10;;